createdAt,value
2023-02-14T00:01:20.771Z,1.80
2023-02-14T00:03:49.542Z,1.70
2023-02-14T00:06:16.981Z,1.60
2023-02-14T00:08:45.228Z,1.60
2023-02-14T00:11:13.369Z,1.60
2023-02-14T00:14:01.388Z,1.70
2023-02-14T00:16:28.692Z,1.80
2023-02-14T00:19:05.119Z,1.80
2023-02-14T00:21:36.151Z,1.90
2023-02-14T00:24:05.894Z,1.80
2023-02-14T00:26:33.388Z,1.70
2023-02-14T00:29:00.921Z,1.60
2023-02-14T00:31:28.468Z,1.80
2023-02-14T00:33:56.156Z,1.70
2023-02-14T00:36:23.250Z,1.80
2023-02-14T00:38:50.536Z,1.80
2023-02-14T00:41:21.703Z,1.80
2023-02-14T00:43:53.558Z,1.80
2023-02-14T00:46:22.450Z,1.80
2023-02-14T00:48:50.087Z,1.80
2023-02-14T00:51:18.669Z,1.80
2023-02-14T00:53:48.037Z,1.70
2023-02-14T00:56:16.353Z,1.60
2023-02-14T00:58:43.594Z,1.40
2023-02-14T01:01:11.749Z,1.30
2023-02-14T01:03:40.115Z,1.10
2023-02-14T01:06:08.148Z,1.00
2023-02-14T01:08:35.673Z,1.00
2023-02-14T01:11:13.449Z,1.00
2023-02-14T01:13:42.939Z,1.20
2023-02-14T01:16:13.224Z,1.20
2023-02-14T01:18:41.126Z,1.30
2023-02-14T01:21:14.060Z,1.20
2023-02-14T01:23:43.228Z,1.70
2023-02-14T01:26:10.901Z,1.40
2023-02-14T01:28:38.836Z,1.40
2023-02-14T01:31:12.105Z,1.40
2023-02-14T01:33:41.473Z,1.20
2023-02-14T01:36:19.603Z,1.10
2023-02-14T01:38:46.965Z,1.10
2023-02-14T01:41:14.456Z,1.00
2023-02-14T01:44:04.000Z,0.90
2023-02-14T01:46:34.182Z,0.90
2023-02-14T01:49:07.453Z,0.80
2023-02-14T01:51:37.432Z,0.90
2023-02-14T01:54:08.693Z,0.90
2023-02-14T01:56:48.300Z,0.30
2023-02-14T01:59:19.872Z,0.90
2023-02-14T02:01:50.741Z,1.00
2023-02-14T02:04:22.875Z,1.10
2023-02-14T02:06:55.949Z,1.20
2023-02-14T02:09:35.384Z,1.20
2023-02-14T02:12:02.582Z,1.30
2023-02-14T02:14:31.365Z,1.30
2023-02-14T02:17:26.264Z,1.30
2023-02-14T02:20:08.412Z,1.30
2023-02-14T02:23:00.797Z,1.20
2023-02-14T02:25:47.018Z,1.10
2023-02-14T02:28:32.551Z,1.40
2023-02-14T02:31:05.849Z,1.00
2023-02-14T02:33:58.175Z,1.00
2023-02-14T02:36:37.854Z,1.10
2023-02-14T02:39:24.907Z,1.10
2023-02-14T02:42:04.076Z,1.10
2023-02-14T02:44:50.854Z,1.20
2023-02-14T02:47:36.118Z,1.10
2023-02-14T02:50:28.798Z,1.10
2023-02-14T02:53:23.942Z,1.20
2023-02-14T02:56:16.866Z,1.20
2023-02-14T02:58:53.294Z,1.10
2023-02-14T03:01:26.474Z,1.30
2023-02-14T03:04:20.052Z,1.30
2023-02-14T03:06:47.715Z,1.20
2023-02-14T03:09:36.203Z,1.20
2023-02-14T03:12:21.782Z,1.10
2023-02-14T03:15:10.226Z,1.30
2023-02-14T03:17:42.056Z,1.20
2023-02-14T03:20:15.804Z,1.10
2023-02-14T03:23:01.441Z,1.10
2023-02-14T03:26:06.628Z,0.80
2023-02-14T03:28:52.578Z,0.80
2023-02-14T03:31:38.229Z,0.80
2023-02-14T03:34:17.463Z,0.80
2023-02-14T03:36:50.987Z,0.70
2023-02-14T03:39:26.719Z,0.70
2023-02-14T03:42:09.130Z,0.60
2023-02-14T03:44:38.803Z,0.70
2023-02-14T03:47:20.573Z,0.70
2023-02-14T03:50:04.529Z,0.90
2023-02-14T03:52:34.934Z,0.70
2023-02-14T03:55:05.187Z,0.60
2023-02-14T03:57:43.930Z,0.60
2023-02-14T04:00:12.144Z,0.50
2023-02-14T04:02:46.817Z,0.50
2023-02-14T04:05:18.120Z,0.60
2023-02-14T04:07:51.504Z,0.60
2023-02-14T04:10:20.222Z,0.60
2023-02-14T04:12:48.670Z,0.50
2023-02-14T04:15:16.449Z,0.50
2023-02-14T04:18:02.736Z,0.40
2023-02-14T04:20:30.591Z,0.50
2023-02-14T04:23:00.238Z,0.70
2023-02-14T04:25:29.496Z,0.50
2023-02-14T04:27:57.552Z,0.50
2023-02-14T04:30:24.782Z,0.50
2023-02-14T04:32:52.487Z,0.60
2023-02-14T04:35:19.629Z,0.70
2023-02-14T04:37:46.802Z,0.60
2023-02-14T04:40:17.732Z,0.50
2023-02-14T04:42:46.493Z,0.60
2023-02-14T04:45:13.732Z,0.80
2023-02-14T04:47:40.896Z,0.90
2023-02-14T04:50:08.370Z,0.90
2023-02-14T04:52:36.102Z,0.90
2023-02-14T04:55:04.526Z,1.00
2023-02-14T04:57:31.806Z,0.90
2023-02-14T04:59:58.948Z,0.90
2023-02-14T05:02:26.787Z,1.00
2023-02-14T05:04:53.987Z,1.10
2023-02-14T05:07:21.212Z,1.20
2023-02-14T05:09:48.282Z,1.50
2023-02-14T05:12:17.266Z,1.20
2023-02-14T05:14:44.935Z,1.40
2023-02-14T05:17:12.123Z,1.40
2023-02-14T05:19:39.268Z,1.40
2023-02-14T05:22:06.386Z,1.40
2023-02-14T05:24:33.495Z,1.40
2023-02-14T05:27:00.699Z,1.30
2023-02-14T05:29:27.911Z,1.40
2023-02-14T05:31:55.049Z,1.30
2023-02-14T05:34:22.226Z,1.30
2023-02-14T05:36:49.725Z,1.40
2023-02-14T05:39:16.828Z,1.40
2023-02-14T05:41:43.890Z,1.50
2023-02-14T05:44:11.039Z,1.50
2023-02-14T05:46:38.682Z,1.50
2023-02-14T05:49:05.809Z,1.50
2023-02-14T05:51:33.033Z,1.50
2023-02-14T05:54:01.973Z,1.70
2023-02-14T05:56:29.086Z,1.50
2023-02-14T05:58:56.163Z,1.60
2023-02-14T06:01:23.338Z,1.60
2023-02-14T06:03:51.664Z,1.60
2023-02-14T06:06:18.757Z,1.60
2023-02-14T06:08:46.021Z,1.60
2023-02-14T06:11:13.120Z,1.60
2023-02-14T06:13:41.650Z,1.60
2023-02-14T06:16:08.812Z,1.60
2023-02-14T06:18:35.927Z,1.80
2023-02-14T06:21:03.199Z,1.70
2023-02-14T06:23:30.794Z,1.80
2023-02-14T06:25:58.626Z,1.80
2023-02-14T06:28:25.751Z,1.90
2023-02-14T06:30:52.937Z,1.90
2023-02-14T06:33:20.169Z,1.90
2023-02-14T06:35:47.808Z,1.80
2023-02-14T06:38:14.872Z,1.90
2023-02-14T06:40:41.987Z,2.10
2023-02-14T06:43:09.659Z,2.20
2023-02-14T06:45:37.992Z,1.90
2023-02-14T06:48:05.207Z,2.00
2023-02-14T06:50:32.345Z,2.00
2023-02-14T06:53:00.528Z,2.00
2023-02-14T06:55:27.734Z,2.00
2023-02-14T06:57:54.822Z,2.10
2023-02-14T07:00:22.440Z,2.10
2023-02-14T07:02:50.627Z,2.00
2023-02-14T07:05:19.223Z,2.00
2023-02-14T07:07:47.194Z,2.00
2023-02-14T07:10:15.302Z,1.90
2023-02-14T07:12:45.463Z,2.20
2023-02-14T07:15:13.966Z,3.10
2023-02-14T07:17:41.693Z,2.80
2023-02-14T07:20:10.751Z,2.40
2023-02-14T07:22:38.981Z,2.30
2023-02-14T07:25:08.026Z,2.00
2023-02-14T07:27:35.277Z,2.10
2023-02-14T07:30:02.834Z,2.10
2023-02-14T07:32:32.814Z,2.30
2023-02-14T07:35:00.039Z,2.30
2023-02-14T07:37:27.214Z,2.20
2023-02-14T07:39:54.387Z,2.30
2023-02-14T07:42:21.516Z,2.00
2023-02-14T07:44:49.354Z,2.20
2023-02-14T07:47:16.886Z,2.20
2023-02-14T07:49:44.136Z,2.10
2023-02-14T07:52:11.515Z,2.20
2023-02-14T07:54:39.108Z,2.10
2023-02-14T07:57:07.201Z,2.20
2023-02-14T07:59:35.180Z,2.30
2023-02-14T08:02:02.837Z,2.40
2023-02-14T08:04:32.848Z,2.10
2023-02-14T08:07:01.010Z,2.50
2023-02-14T08:09:28.231Z,2.70
2023-02-14T08:12:16.334Z,2.60
2023-02-14T08:14:44.728Z,2.40
2023-02-14T08:17:13.556Z,2.60
2023-02-14T08:19:41.104Z,2.50
2023-02-14T08:22:08.579Z,2.70
2023-02-14T08:24:35.703Z,2.40
2023-02-14T08:27:03.143Z,2.30
2023-02-14T08:29:30.234Z,2.70
2023-02-14T08:32:00.559Z,2.70
2023-02-14T08:34:27.886Z,2.70
2023-02-14T08:36:55.745Z,2.30
2023-02-14T08:39:22.893Z,2.40
2023-02-14T08:41:50.030Z,3.00
2023-02-14T08:44:17.182Z,2.40
2023-02-14T08:46:44.498Z,2.10
2023-02-14T08:49:11.827Z,1.80
2023-02-14T08:51:39.009Z,1.60
2023-02-14T08:54:06.214Z,1.20
2023-02-14T08:56:33.927Z,1.30
2023-02-14T08:59:01.023Z,1.00
2023-02-14T09:01:29.379Z,0.80
2023-02-14T09:03:58.167Z,0.50
2023-02-14T09:06:26.400Z,0.50
2023-02-14T09:08:55.421Z,0.50
2023-02-14T09:11:24.620Z,0.80
2023-02-14T09:13:54.157Z,1.00
2023-02-14T09:16:22.831Z,1.40
2023-02-14T09:18:50.770Z,1.80
2023-02-14T09:21:24.613Z,2.20
2023-02-14T09:23:52.292Z,2.70
2023-02-14T09:26:20.801Z,2.90
2023-02-14T09:28:48.518Z,2.70
2023-02-14T09:31:21.002Z,2.90
2023-02-14T09:33:50.087Z,3.10
2023-02-14T09:36:36.478Z,2.40
2023-02-14T09:39:04.385Z,3.00
2023-02-14T09:41:31.562Z,3.60
2023-02-14T09:44:13.387Z,3.60
2023-02-14T09:46:46.842Z,3.40
2023-02-14T09:49:18.240Z,3.40
2023-02-14T09:51:52.916Z,3.70
2023-02-14T09:54:28.171Z,3.80
2023-02-14T09:57:04.131Z,4.00
2023-02-14T09:59:50.675Z,4.50
2023-02-14T10:02:45.571Z,4.40
2023-02-14T10:05:34.031Z,4.50
2023-02-14T10:08:01.666Z,4.60
2023-02-14T10:10:43.615Z,4.60
2023-02-14T10:13:46.755Z,4.00
2023-02-14T10:16:21.413Z,3.70
2023-02-14T10:19:01.969Z,3.20
2023-02-14T10:22:15.852Z,3.20
2023-02-14T10:24:50.942Z,2.70
2023-02-14T10:27:23.696Z,2.50
2023-02-14T10:29:50.837Z,2.50
2023-02-14T10:32:42.188Z,2.30
2023-02-14T10:35:26.260Z,2.40
2023-02-14T10:38:28.851Z,2.40
2023-02-14T10:41:10.479Z,2.40
2023-02-14T10:43:58.256Z,2.30
2023-02-14T10:46:44.399Z,2.30
2023-02-14T10:49:26.230Z,2.30
2023-02-14T10:52:23.436Z,2.50
2023-02-14T10:55:31.947Z,2.80
2023-02-14T10:58:04.228Z,2.60
2023-02-14T11:00:35.925Z,2.60
2023-02-14T11:03:07.992Z,3.00
2023-02-14T11:05:37.266Z,2.40
2023-02-14T11:08:27.928Z,2.80
2023-02-14T11:11:08.547Z,2.70
2023-02-14T11:13:38.555Z,2.60
2023-02-14T11:16:19.945Z,2.40
2023-02-14T11:18:47.175Z,2.40
2023-02-14T11:21:21.254Z,2.30
2023-02-14T11:23:50.142Z,2.30
2023-02-14T11:26:48.045Z,2.30
2023-02-14T11:29:24.394Z,2.10
2023-02-14T11:31:52.537Z,2.00
2023-02-14T11:34:54.522Z,2.10
2023-02-14T11:37:26.762Z,2.10
2023-02-14T11:39:55.604Z,2.30
2023-02-14T11:42:45.503Z,2.10
2023-02-14T11:45:34.312Z,2.30
2023-02-14T11:48:36.780Z,2.30
2023-02-14T11:51:05.079Z,2.20
2023-02-14T11:53:57.108Z,2.40
2023-02-14T11:56:24.681Z,2.40
2023-02-14T11:58:59.904Z,2.20
2023-02-14T12:01:37.033Z,2.70
2023-02-14T12:04:13.960Z,2.70
2023-02-14T12:06:41.903Z,4.30
2023-02-14T12:09:22.359Z,3.60
2023-02-14T12:12:23.557Z,4.20
2023-02-14T12:14:51.030Z,4.00
2023-02-14T12:17:35.821Z,4.10
2023-02-14T12:20:19.688Z,4.70
2023-02-14T12:22:55.528Z,5.80
2023-02-14T12:25:27.440Z,4.70
2023-02-14T12:28:01.595Z,4.10
2023-02-14T12:30:32.853Z,4.60
2023-02-14T12:33:01.893Z,7.00
2023-02-14T12:35:47.373Z,6.80
2023-02-14T12:38:39.909Z,3.90
2023-02-14T12:41:12.959Z,4.20
2023-02-14T12:43:51.867Z,2.90
2023-02-14T12:46:34.416Z,2.80
2023-02-14T12:49:33.260Z,2.60
2023-02-14T12:52:07.367Z,2.70
2023-02-14T12:55:10.750Z,2.30
2023-02-14T12:57:40.614Z,2.20
2023-02-14T13:00:14.833Z,2.10
2023-02-14T13:03:07.731Z,2.10
2023-02-14T13:06:04.386Z,2.40
2023-02-14T13:08:48.951Z,2.30
2023-02-14T13:11:26.442Z,2.40
2023-02-14T13:14:29.714Z,2.30
2023-02-14T13:17:18.500Z,2.20
2023-02-14T13:20:18.232Z,2.30
2023-02-14T13:22:47.139Z,2.10
2023-02-14T13:25:24.241Z,2.10
2023-02-14T13:27:51.716Z,2.20
2023-02-14T13:30:32.353Z,2.20
2023-02-14T13:33:06.498Z,2.10
2023-02-14T13:35:35.388Z,2.00
2023-02-14T13:38:08.646Z,1.90
2023-02-14T13:40:36.644Z,2.10
2023-02-14T13:43:04.648Z,2.00
2023-02-14T13:45:38.487Z,1.90
2023-02-14T13:48:07.429Z,1.90
2023-02-14T13:50:39.552Z,2.10
2023-02-14T13:53:46.400Z,2.00
2023-02-14T13:56:15.525Z,2.00
2023-02-14T13:59:00.756Z,1.90
2023-02-14T14:01:36.066Z,2.00
2023-02-14T14:04:25.701Z,2.00
2023-02-14T14:07:04.499Z,2.10
2023-02-14T14:09:44.705Z,2.00
2023-02-14T14:12:26.900Z,2.00
2023-02-14T14:15:07.453Z,1.90
2023-02-14T14:17:46.079Z,1.80
2023-02-14T14:20:22.378Z,1.80
2023-02-14T14:22:56.089Z,1.60
2023-02-14T14:25:34.972Z,1.80
2023-02-14T14:28:02.123Z,1.70
2023-02-14T14:30:33.680Z,1.60
2023-02-14T14:33:26.178Z,1.70
2023-02-14T14:35:57.057Z,1.70
2023-02-14T14:38:25.102Z,1.70
2023-02-14T14:40:53.280Z,1.70
2023-02-14T14:43:39.595Z,1.80
2023-02-14T14:46:12.602Z,1.80
2023-02-14T14:48:51.979Z,1.70
2023-02-14T14:51:45.982Z,1.80
2023-02-14T14:54:13.500Z,1.80
2023-02-14T14:56:53.780Z,1.70
2023-02-14T14:59:35.285Z,1.70
2023-02-14T15:02:04.117Z,1.60
2023-02-14T15:04:35.360Z,1.60
2023-02-14T15:07:28.314Z,1.70
2023-02-14T15:09:55.388Z,1.80
2023-02-14T15:12:43.391Z,1.80
2023-02-14T15:15:13.599Z,1.60
2023-02-14T15:17:42.277Z,1.50
2023-02-14T15:20:18.879Z,1.70
2023-02-14T15:22:49.682Z,1.70
2023-02-14T15:25:33.986Z,1.60
2023-02-14T15:28:02.108Z,1.60
2023-02-14T15:30:37.307Z,1.60
2023-02-14T15:33:07.579Z,1.40
2023-02-14T15:35:37.494Z,1.60
2023-02-14T15:38:07.212Z,1.50
2023-02-14T15:40:39.196Z,1.50
2023-02-14T15:43:32.283Z,1.50
2023-02-14T15:46:24.754Z,1.60
2023-02-14T15:48:52.954Z,1.50
2023-02-14T15:51:24.978Z,1.50
2023-02-14T15:53:59.717Z,1.50
2023-02-14T15:56:31.958Z,1.40
2023-02-14T15:59:17.444Z,1.40
2023-02-14T16:01:55.213Z,1.60
2023-02-14T16:04:35.849Z,1.50
2023-02-14T16:07:25.815Z,1.50
2023-02-14T16:10:14.043Z,1.60
2023-02-14T16:12:42.528Z,1.40
2023-02-14T16:15:15.716Z,1.50
2023-02-14T16:17:44.264Z,1.40
2023-02-14T16:20:40.713Z,1.30
2023-02-14T16:23:28.500Z,1.30
2023-02-14T16:25:58.935Z,1.30
2023-02-14T16:28:30.490Z,1.40
2023-02-14T16:31:03.720Z,1.30
2023-02-14T16:33:40.082Z,1.30
2023-02-14T16:36:16.521Z,1.20
2023-02-14T16:38:45.891Z,1.30
2023-02-14T16:41:22.095Z,1.30
2023-02-14T16:43:50.576Z,1.40
2023-02-14T16:46:21.485Z,1.30
2023-02-14T16:48:52.923Z,1.30
2023-02-14T16:51:23.242Z,1.30
2023-02-14T16:53:50.989Z,1.20
2023-02-14T16:56:24.108Z,1.30
2023-02-14T16:58:51.151Z,1.30
2023-02-14T17:01:18.179Z,1.20
2023-02-14T17:03:45.327Z,1.20
2023-02-14T17:06:18.589Z,1.10
2023-02-14T17:08:48.391Z,1.20
2023-02-14T17:11:16.144Z,1.20
2023-02-14T17:13:45.075Z,1.30
2023-02-14T17:16:16.170Z,1.20
2023-02-14T17:18:47.741Z,1.10
2023-02-14T17:21:16.085Z,1.20
2023-02-14T17:23:43.764Z,1.30
2023-02-14T17:26:11.431Z,1.20
2023-02-14T17:28:38.601Z,1.20
2023-02-14T17:31:06.434Z,1.20
2023-02-14T17:33:34.489Z,1.10
2023-02-14T17:36:06.801Z,1.10
2023-02-14T17:38:37.105Z,1.20
2023-02-14T17:41:15.519Z,1.20
2023-02-14T17:43:43.089Z,1.10
2023-02-14T17:46:11.113Z,1.20
2023-02-14T17:48:38.211Z,1.20
2023-02-14T17:51:07.554Z,1.10
2023-02-14T17:53:35.751Z,1.20
2023-02-14T17:56:13.415Z,1.10
2023-02-14T17:58:40.820Z,1.10
2023-02-14T18:01:12.981Z,1.00
2023-02-14T18:03:41.314Z,1.00
2023-02-14T18:06:11.174Z,1.10
2023-02-14T18:08:41.137Z,1.10
2023-02-14T18:11:10.829Z,1.10
2023-02-14T18:13:38.242Z,1.00
2023-02-14T18:16:10.888Z,1.10
2023-02-14T18:18:38.691Z,1.10
2023-02-14T18:21:09.108Z,1.10
2023-02-14T18:23:36.579Z,1.00
2023-02-14T18:26:07.164Z,1.00
2023-02-14T18:28:36.515Z,1.00
2023-02-14T18:31:10.385Z,1.10
2023-02-14T18:33:38.451Z,1.10
2023-02-14T18:36:14.075Z,1.00
2023-02-14T18:38:42.893Z,1.10
2023-02-14T18:41:13.409Z,1.00
2023-02-14T18:43:41.941Z,1.10
2023-02-14T18:46:17.724Z,1.00
2023-02-14T18:48:45.537Z,0.90
2023-02-14T18:51:16.094Z,0.80
2023-02-14T18:53:44.874Z,0.80
2023-02-14T18:56:17.393Z,0.90
2023-02-14T18:58:48.093Z,0.80
2023-02-14T19:01:18.231Z,0.70
2023-02-14T19:03:46.217Z,0.70
2023-02-14T19:06:13.691Z,0.60
2023-02-14T19:08:41.312Z,0.60
2023-02-14T19:11:20.232Z,0.70
2023-02-14T19:13:49.957Z,0.60
2023-02-14T19:16:20.925Z,0.60
2023-02-14T19:18:49.949Z,0.50
2023-02-14T19:21:21.679Z,0.50
2023-02-14T19:23:50.694Z,0.50
2023-02-14T19:26:20.795Z,0.50
2023-02-14T19:28:49.375Z,0.50
2023-02-14T19:31:16.934Z,0.50
2023-02-14T19:33:46.773Z,0.50
2023-02-14T19:36:16.491Z,0.50
2023-02-14T19:38:46.114Z,0.40
2023-02-14T19:41:24.589Z,0.20
2023-02-14T19:43:52.634Z,0.20
2023-02-14T19:46:21.557Z,0.20
2023-02-14T19:48:49.790Z,0.00
2023-02-14T19:51:18.547Z,0.20
2023-02-14T19:53:46.622Z,0.00
2023-02-14T19:56:20.149Z,0.00
2023-02-14T19:58:47.632Z,0.10
2023-02-14T20:01:39.695Z,0.00
2023-02-14T20:04:10.161Z,0.10
2023-02-14T20:06:38.455Z,0.00
2023-02-14T20:09:06.778Z,-0.10
2023-02-14T20:11:54.560Z,-0.10
2023-02-14T20:14:28.912Z,-0.10
2023-02-14T20:16:58.631Z,-0.10
2023-02-14T20:19:28.005Z,-0.10
2023-02-14T20:21:55.941Z,-0.30
2023-02-14T20:24:30.156Z,-0.20
2023-02-14T20:26:57.715Z,-0.10
2023-02-14T20:29:25.408Z,-0.10
2023-02-14T20:31:55.306Z,-0.20
2023-02-14T20:34:22.508Z,-0.20
2023-02-14T20:36:53.650Z,-0.10
2023-02-14T20:39:23.179Z,-0.20
2023-02-14T20:41:50.483Z,-0.30
2023-02-14T20:44:22.588Z,-0.20
2023-02-14T20:46:52.493Z,-0.30
2023-02-14T20:49:21.705Z,-0.20
2023-02-14T20:51:50.200Z,-0.30
2023-02-14T20:54:19.061Z,-0.30
2023-02-14T20:56:46.864Z,-0.40
2023-02-14T20:59:14.635Z,-0.30
2023-02-14T21:01:41.965Z,-0.10
2023-02-14T21:04:09.881Z,-0.60
2023-02-14T21:06:39.944Z,-0.40
2023-02-14T21:09:07.497Z,-0.20
2023-02-14T21:11:34.845Z,-0.30
2023-02-14T21:14:02.746Z,-0.30
2023-02-14T21:16:30.509Z,-0.50
2023-02-14T21:18:59.739Z,-0.40
2023-02-14T21:21:36.523Z,-0.40
2023-02-14T21:24:07.728Z,-0.30
2023-02-14T21:26:36.188Z,-0.40
2023-02-14T21:29:04.510Z,-0.40
2023-02-14T21:31:32.493Z,-0.30
2023-02-14T21:34:02.133Z,-0.40
2023-02-14T21:36:32.131Z,-0.30
2023-02-14T21:39:00.042Z,-0.40
2023-02-14T21:41:29.714Z,-0.40
2023-02-14T21:43:59.110Z,-0.50
2023-02-14T21:46:31.680Z,-0.60
2023-02-14T21:49:22.980Z,-0.50
2023-02-14T21:51:50.397Z,-0.50
2023-02-14T21:54:17.897Z,-0.50
2023-02-14T21:56:45.293Z,-0.60
2023-02-14T21:59:12.905Z,-0.50
2023-02-14T22:01:41.569Z,-0.60
2023-02-14T22:04:11.260Z,-0.40
2023-02-14T22:06:40.422Z,-0.50
2023-02-14T22:09:08.126Z,-0.50
2023-02-14T22:11:35.446Z,-0.40
2023-02-14T22:14:03.616Z,-0.40
2023-02-14T22:16:30.989Z,-0.50
2023-02-14T22:18:58.201Z,-0.50
2023-02-14T22:21:27.233Z,-0.60
2023-02-14T22:23:55.987Z,-0.60
2023-02-14T22:26:26.031Z,-0.60
2023-02-14T22:28:57.054Z,-0.50
2023-02-14T22:31:25.638Z,-0.60
2023-02-14T22:33:53.148Z,-0.70
2023-02-14T22:36:20.905Z,-0.50
2023-02-14T22:38:48.156Z,-0.80
2023-02-14T22:41:17.747Z,-0.80
2023-02-14T22:43:46.972Z,-0.80
2023-02-14T22:46:17.409Z,-0.70
2023-02-14T22:48:44.832Z,-0.80
2023-02-14T22:51:29.760Z,-0.70
2023-02-14T22:53:59.929Z,-0.70
2023-02-14T22:56:31.419Z,-0.60
2023-02-14T22:59:06.928Z,-0.60
2023-02-14T23:01:35.629Z,-0.70
2023-02-14T23:04:04.361Z,-0.60
2023-02-14T23:06:34.548Z,-0.60
2023-02-14T23:09:03.491Z,-0.50
2023-02-14T23:11:32.536Z,-0.50
2023-02-14T23:14:18.918Z,-0.70
2023-02-14T23:17:25.216Z,-0.70
2023-02-14T23:20:11.028Z,-0.70
2023-02-14T23:22:40.268Z,-0.60
2023-02-14T23:25:12.067Z,-0.80
2023-02-14T23:27:43.424Z,-0.70
2023-02-14T23:30:15.520Z,-0.80
2023-02-14T23:32:44.936Z,-0.70
2023-02-14T23:35:12.469Z,-0.70
2023-02-14T23:37:39.985Z,-0.50
2023-02-14T23:40:07.744Z,-0.70
2023-02-14T23:42:34.966Z,-0.70
2023-02-14T23:45:20.471Z,-0.60
2023-02-14T23:47:47.807Z,-0.70
2023-02-14T23:50:14.933Z,-0.60
2023-02-14T23:52:42.993Z,-0.70
2023-02-14T23:55:11.611Z,-0.70
2023-02-14T23:57:39.966Z,-0.70
